Time;durP1;ratioP1;P1;durP2;ratioP2;P2;SDS_P1;SDS_P2;PMS_P1;PMS_P2;Temp;Humidity;BMP_temperature;BMP_pressure;BME280_temperature;BME280_humidity;BME280_pressure;Samples;Min_cycle;Max_cycle;Signal;HPM_P1;HPM_P2
2022/09/17 00:00:47;;;;;;;7.65;2.88;;;13.50;99.90;;;;;;5077985;28;20040;-84
2022/09/17 00:03:14;;;;;;;4.00;2.90;;;13.40;99.90;;;;;;5079309;28;20052;-84
2022/09/17 00:05:40;;;;;;;7.95;3.15;;;13.40;99.90;;;;;;5061735;28;20023;-84
2022/09/17 00:08:08;;;;;;;6.53;3.38;;;13.40;99.90;;;;;;5061999;28;20053;-84
2022/09/17 00:10:40;;;;;;;6.55;3.20;;;13.40;99.90;;;;;;5062295;28;20009;-85
2022/09/17 00:13:07;;;;;;;4.70;2.53;;;13.40;99.90;;;;;;5079949;28;20059;-85
2022/09/17 00:15:39;;;;;;;7.00;3.10;;;13.40;99.90;;;;;;5062103;28;20025;-84
2022/09/17 00:18:05;;;;;;;5.18;3.20;;;13.40;99.90;;;;;;5060859;28;20180;-83
2022/09/17 00:20:31;;;;;;;6.35;3.03;;;13.40;99.90;;;;;;5077371;28;20032;-83
2022/09/17 00:22:57;;;;;;;4.55;3.60;;;13.30;99.90;;;;;;5076040;28;20025;-84
2022/09/17 00:25:23;;;;;;;5.63;2.90;;;13.30;99.90;;;;;;5075885;28;20029;-85
2022/09/17 00:27:48;;;;;;;6.10;3.38;;;13.30;99.90;;;;;;5076092;28;20037;-88
2022/09/17 00:30:14;;;;;;;7.20;2.85;;;13.30;99.90;;;;;;5043026;28;20138;-85
2022/09/17 00:32:40;;;;;;;4.00;2.97;;;13.20;99.90;;;;;;5075707;28;20048;-84
2022/09/17 00:35:06;;;;;;;3.85;2.60;;;13.20;99.90;;;;;;5077978;28;20059;-83
2022/09/17 00:37:32;;;;;;;5.63;3.22;;;13.20;99.90;;;;;;5077792;28;20081;-84
2022/09/17 00:39:58;;;;;;;6.03;2.60;;;13.20;99.90;;;;;;5076770;28;20033;-84
2022/09/17 00:42:24;;;;;;;4.85;2.97;;;13.20;99.90;;;;;;5075168;28;20029;-85
2022/09/17 00:44:54;;;;;;;4.40;2.80;;;13.20;99.90;;;;;;5069846;28;20052;-84
2022/09/17 00:47:29;;;;;;;6.00;3.50;;;13.20;99.90;;;;;;5052016;28;20036;-86
2022/09/17 00:50:04;;;;;;;7.15;2.75;;;13.20;99.90;;;;;;5073256;28;20029;-86
2022/09/17 00:52:38;;;;;;;5.07;3.35;;;13.20;99.90;;;;;;5053647;28;20040;-87
2022/09/17 00:55:23;;;;;;;9.98;4.70;;;13.10;99.90;;;;;;5070714;28;20439;-84
2022/09/17 00:57:51;;;;;;;;;;;13.10;99.90;;;;;;5059614;28;20029;-83
2022/09/17 01:00:17;;;;;;;7.72;3.58;;;13.10;99.90;;;;;;5079704;28;19940;-83
2022/09/17 01:02:44;;;;;;;7.85;3.05;;;13.10;99.90;;;;;;5061260;28;20072;-83
2022/09/17 01:05:11;;;;;;;7.50;3.60;;;13.00;99.90;;;;;;5071896;28;20444;-85
2022/09/17 01:08:04;;;;;;;6.85;3.22;;;13.10;99.90;;;;;;5069809;28;20040;-84
2022/09/17 01:10:54;;;;;;;4.65;3.42;;;13.10;99.90;;;;;;5068832;28;20024;-84
2022/09/17 01:13:41;;;;;;;5.68;3.20;;;13.10;99.90;;;;;;5050222;28;20025;-86
2022/09/17 01:16:35;;;;;;;5.78;3.50;;;13.10;99.90;;;;;;5050009;28;20029;-83
2022/09/17 01:19:27;;;;;;;8.30;3.60;;;13.10;99.90;;;;;;5068094;28;20040;-85
2022/09/17 01:22:12;;;;;;;5.55;4.05;;;13.10;99.90;;;;;;5057554;28;20029;-84
2022/09/17 01:24:44;;;;;;;;;;;13.10;99.90;;;;;;5059226;28;20016;-84
2022/09/17 01:27:46;;;;;;;4.35;3.40;;;13.10;99.90;;;;;;5075828;28;19901;-83
2022/09/17 01:30:21;;;;;;;5.43;3.28;;;13.10;99.90;;;;;;5076421;28;20028;-84
2022/09/17 01:33:19;;;;;;;5.22;3.40;;;13.10;99.90;;;;;;5072407;28;20025;-85
2022/09/17 01:36:06;;;;;;;5.65;3.45;;;13.10;99.90;;;;;;5068696;28;20025;-85
2022/09/17 01:38:39;;;;;;;8.45;4.18;;;13.10;99.90;;;;;;5068453;28;20021;-84
2022/09/17 01:41:19;;;;;;;6.90;3.53;;;13.10;99.90;;;;;;5067723;28;20025;-84
2022/09/17 01:43:51;;;;;;;5.53;3.33;;;13.00;99.90;;;;;;5060195;28;20063;-84
2022/09/17 01:46:29;;;;;;;8.45;4.10;;;13.00;99.90;;;;;;5067927;28;20029;-84
2022/09/17 01:49:02;;;;;;;4.93;3.30;;;13.00;99.90;;;;;;5067104;28;20041;-84
2022/09/17 01:51:35;;;;;;;6.63;3.50;;;12.90;99.90;;;;;;5066220;28;20063;-85
2022/09/17 01:54:16;;;;;;;7.50;3.78;;;12.90;99.90;;;;;;5066828;28;20473;-86
2022/09/17 01:56:48;;;;;;;4.68;3.90;;;12.90;99.90;;;;;;5068920;28;20098;-84
2022/09/17 01:59:29;;;;;;;4.60;3.45;;;12.90;99.90;;;;;;5068140;28;20033;-85
2022/09/17 02:02:23;;;;;;;7.15;3.80;;;12.80;99.90;;;;;;5067233;28;20044;-86
2022/09/17 02:04:58;;;;;;;6.55;3.97;;;12.80;99.90;;;;;;5070936;28;20109;-84
2022/09/17 02:07:24;;;;;;;6.97;3.88;;;12.80;99.90;;;;;;5069269;28;20025;-85
2022/09/17 02:10:28;;;;;;;10.57;4.45;;;12.80;99.90;;;;;;5069707;28;20032;-85
2022/09/17 02:13:01;;;;;;;8.10;5.43;;;12.70;99.90;;;;;;5062325;28;20048;-84
2022/09/17 02:15:33;;;;;;;5.68;4.30;;;12.70;99.90;;;;;;5071236;28;20064;-86
2022/09/17 02:18:25;;;;;;;7.30;4.65;;;12.70;99.90;;;;;;5089879;28;20025;-81
2022/09/17 02:21:26;;;;;;;8.15;4.57;;;12.80;99.90;;;;;;5078028;28;20025;-82
2022/09/17 02:24:19;;;;;;;7.70;4.70;;;12.70;99.90;;;;;;5060215;28;20037;-84
2022/09/17 02:26:56;;;;;;;7.82;4.70;;;12.70;99.90;;;;;;5075600;28;20041;-83
2022/09/17 02:29:36;;;;;;;7.65;4.63;;;12.70;99.90;;;;;;5077430;28;20021;-83
2022/09/17 02:32:03;;;;;;;7.90;4.78;;;12.70;99.90;;;;;;5077418;28;20077;-82
2022/09/17 02:34:29;;;;;;;7.93;4.28;;;12.70;99.90;;;;;;5078174;28;20092;-82
2022/09/17 02:36:57;;;;;;;6.47;4.38;;;12.60;99.90;;;;;;5077608;28;20088;-81
2022/09/17 02:39:23;;;;;;;6.65;4.20;;;12.60;99.90;;;;;;5078191;28;20005;-83
2022/09/17 02:42:16;;;;;;;8.55;4.22;;;12.60;99.90;;;;;;5077731;28;20089;-80
2022/09/17 02:45:04;;;;;;;7.85;3.88;;;12.70;99.90;;;;;;5058355;28;20017;-82
2022/09/17 02:47:32;;;;;;;7.20;4.10;;;12.70;99.90;;;;;;5057555;28;20060;-83
2022/09/17 02:50:26;;;;;;;6.50;3.92;;;12.80;99.90;;;;;;5057303;28;20044;-82
2022/09/17 02:53:04;;;;;;;9.98;4.65;;;12.80;99.90;;;;;;5040594;28;20026;-83
2022/09/17 02:55:38;;;;;;;6.03;3.63;;;12.80;99.90;;;;;;5058548;28;20014;-83
2022/09/17 02:58:20;;;;;;;6.50;4.25;;;12.90;99.90;;;;;;5058219;28;20021;-83
2022/09/17 03:00:47;;;;;;;5.38;4.00;;;12.80;99.90;;;;;;5058263;28;20121;-82
2022/09/17 03:03:34;;;;;;;8.20;4.35;;;12.80;99.90;;;;;;5040867;28;20038;-82
2022/09/17 03:06:00;;;;;;;7.05;4.13;;;12.80;99.90;;;;;;5058067;28;20018;-83
2022/09/17 03:08:35;;;;;;;7.55;3.38;;;12.80;99.90;;;;;;5040845;28;20025;-83
2022/09/17 03:11:03;;;;;;;10.50;4.07;;;12.80;99.90;;;;;;5041620;28;20089;-83
2022/09/17 03:13:29;;;;;;;9.50;4.05;;;12.80;99.90;;;;;;5058003;28;20037;-84
2022/09/17 03:15:56;;;;;;;7.72;3.72;;;12.90;99.90;;;;;;5057665;28;20064;-83
2022/09/17 03:18:22;;;;;;;5.95;3.58;;;12.90;99.90;;;;;;5038424;28;20037;-85
2022/09/17 03:20:47;;;;;;;3.92;3.28;;;12.90;99.90;;;;;;5056571;28;20016;-85
2022/09/17 03:23:13;;;;;;;7.18;3.65;;;12.90;99.90;;;;;;5039236;28;20030;-83
2022/09/17 03:25:39;;;;;;;6.63;3.58;;;13.00;99.90;;;;;;5040551;28;20035;-82
2022/09/17 03:28:05;;;;;;;4.63;3.47;;;13.00;99.90;;;;;;5057316;28;20073;-85
2022/09/17 03:30:30;;;;;;;7.38;3.90;;;13.00;99.90;;;;;;5057979;28;20026;-84
2022/09/17 03:32:56;;;;;;;7.03;3.42;;;13.00;99.90;;;;;;5057557;28;20018;-81
2022/09/17 03:35:22;;;;;;;5.18;3.45;;;13.00;99.90;;;;;;5057727;28;20033;-83
2022/09/17 03:37:48;;;;;;;6.57;3.40;;;13.00;99.90;;;;;;5040616;28;20014;-83
2022/09/17 03:40:15;;;;;;;5.18;3.42;;;13.00;99.90;;;;;;5057639;28;20049;-81
2022/09/17 03:42:41;;;;;;;6.13;3.42;;;13.00;99.90;;;;;;5062466;28;20057;-83
2022/09/17 03:45:07;;;;;;;5.40;3.90;;;13.00;99.90;;;;;;5077884;28;20032;-85
2022/09/17 03:47:33;;;;;;;5.88;3.65;;;13.00;99.90;;;;;;5060513;28;20052;-83
2022/09/17 03:49:59;;;;;;;8.77;4.38;;;13.00;99.90;;;;;;5058717;28;20020;-86
2022/09/17 03:52:24;;;;;;;7.78;3.33;;;13.00;99.90;;;;;;5076346;28;20017;-85
2022/09/17 03:54:50;;;;;;;6.50;4.00;;;12.90;99.90;;;;;;5076445;28;20017;-86
2022/09/17 03:57:16;;;;;;;7.15;3.95;;;12.90;99.90;;;;;;5043161;28;20021;-86
2022/09/17 03:59:42;;;;;;;6.88;3.42;;;12.90;99.90;;;;;;5080037;28;20044;-86
2022/09/17 04:02:08;;;;;;;5.32;3.40;;;13.00;99.90;;;;;;5061624;28;20040;-84
2022/09/17 04:04:33;;;;;;;4.97;3.75;;;13.00;99.90;;;;;;5076447;28;20021;-85
2022/09/17 04:06:59;;;;;;;6.35;3.60;;;13.00;99.90;;;;;;5076309;28;20040;-86
2022/09/17 04:09:25;;;;;;;9.98;3.55;;;13.00;99.90;;;;;;5059255;28;20029;-85
2022/09/17 04:11:51;;;;;;;6.22;3.45;;;13.00;99.90;;;;;;5069658;28;20020;-85
2022/09/17 04:14:16;;;;;;;12.20;3.58;;;13.00;99.90;;;;;;5050088;28;20028;-85
2022/09/17 04:16:42;;;;;;;6.10;3.72;;;12.90;99.90;;;;;;5083824;28;20062;-86
2022/09/17 04:19:08;;;;;;;6.72;3.97;;;13.00;99.90;;;;;;5070349;28;20040;-85
2022/09/17 04:21:34;;;;;;;8.00;4.53;;;12.90;99.90;;;;;;5086404;28;20029;-84
2022/09/17 04:24:00;;;;;;;7.95;4.10;;;12.90;99.90;;;;;;5089587;28;20024;-83
2022/09/17 04:26:25;;;;;;;6.25;3.85;;;12.90;99.90;;;;;;5065413;28;20028;-85
2022/09/17 04:28:51;;;;;;;4.90;3.78;;;12.90;99.90;;;;;;5085729;28;20012;-83
2022/09/17 04:31:17;;;;;;;5.82;4.00;;;12.90;99.90;;;;;;5071263;28;20048;-82
2022/09/17 04:33:43;;;;;;;9.35;4.38;;;12.90;99.90;;;;;;5086515;28;20417;-84
2022/09/17 04:36:08;;;;;;;7.97;4.75;;;12.80;99.90;;;;;;5080306;28;20536;-85
2022/09/17 04:38:34;;;;;;;5.45;4.07;;;12.80;99.90;;;;;;5088284;28;20137;-84
2022/09/17 04:41:01;;;;;;;6.15;4.47;;;12.80;99.90;;;;;;5088973;28;20055;-83
2022/09/17 04:43:27;;;;;;;7.30;4.68;;;12.90;99.90;;;;;;5088248;28;20029;-85
2022/09/17 04:45:53;;;;;;;9.85;4.78;;;12.80;99.90;;;;;;5071872;28;20017;-84
2022/09/17 04:48:19;;;;;;;7.20;4.80;;;12.80;99.90;;;;;;5091837;28;20035;-82
2022/09/17 04:50:45;;;;;;;10.30;4.63;;;12.80;99.90;;;;;;5074499;28;20044;-86
2022/09/17 04:53:12;;;;;;;5.90;4.30;;;12.80;99.90;;;;;;5055621;28;20100;-87
2022/09/17 04:55:37;;;;;;;8.65;4.70;;;12.80;99.90;;;;;;5090019;28;20024;-86
2022/09/17 04:58:03;;;;;;;10.32;4.82;;;12.80;99.90;;;;;;5069613;28;20043;-85
2022/09/17 05:00:29;;;;;;;9.20;5.63;;;12.80;99.90;;;;;;5092349;28;20041;-83
2022/09/17 05:02:55;;;;;;;6.60;4.50;;;12.90;99.90;;;;;;5075385;28;20032;-82
2022/09/17 05:05:22;;;;;;;9.40;5.13;;;12.90;99.90;;;;;;5098576;28;20054;-82
2022/09/17 05:07:48;;;;;;;8.70;4.78;;;12.90;99.90;;;;;;5064504;28;20044;-84
2022/09/17 05:10:16;;;;;;;8.40;4.82;;;12.90;99.90;;;;;;5097488;28;20029;-83
2022/09/17 05:12:47;;;;;;;6.70;5.10;;;12.90;99.90;;;;;;5081476;28;20031;-85
2022/09/17 05:15:13;;;;;;;9.55;4.70;;;12.90;99.90;;;;;;5098967;28;20128;-83
2022/09/17 05:17:39;;;;;;;11.48;5.40;;;12.90;99.90;;;;;;5066304;28;20037;-84
2022/09/17 05:20:05;;;;;;;8.40;5.35;;;12.90;99.90;;;;;;5077066;28;20036;-88
2022/09/17 05:22:33;;;;;;;12.18;5.60;;;13.00;99.90;;;;;;5074389;28;20060;-86
2022/09/17 05:24:59;;;;;;;9.23;5.65;;;13.00;99.90;;;;;;5077792;28;20031;-85
2022/09/17 05:27:25;;;;;;;8.85;5.57;;;13.00;99.90;;;;;;5077645;28;20048;-85
2022/09/17 05:29:50;;;;;;;7.97;5.32;;;13.00;99.90;;;;;;5076752;28;20017;-86
2022/09/17 05:32:16;;;;;;;7.20;4.88;;;13.00;99.90;;;;;;5043877;28;20024;-85
2022/09/17 05:34:43;;;;;;;9.55;5.53;;;13.10;99.90;;;;;;5078350;28;20017;-85
2022/09/17 05:37:10;;;;;;;10.07;5.50;;;13.10;99.90;;;;;;5061631;28;20023;-84
2022/09/17 05:39:36;;;;;;;6.88;5.22;;;13.10;99.90;;;;;;5045073;28;20037;-84
2022/09/17 05:42:01;;;;;;;8.80;4.80;;;13.10;99.90;;;;;;5077634;28;20025;-85
2022/09/17 05:44:27;;;;;;;11.88;4.55;;;13.10;99.90;;;;;;5132098;22;20489;-85
2022/09/17 05:46:53;;;;;;;7.38;4.47;;;13.10;99.90;;;;;;5055250;28;20021;-85
2022/09/17 05:49:21;;;;;;;6.10;4.68;;;13.20;99.90;;;;;;5070572;28;20052;-85
2022/09/17 05:51:48;;;;;;;6.60;4.55;;;13.20;99.90;;;;;;5048324;28;20400;-85
2022/09/17 05:54:14;;;;;;;12.57;5.70;;;13.20;99.90;;;;;;5068231;28;20040;-84
2022/09/17 05:56:40;;;;;;;8.60;5.00;;;13.30;99.90;;;;;;5065505;28;20029;-84
2022/09/17 05:59:05;;;;;;;6.68;5.03;;;13.30;99.90;;;;;;5067384;28;20037;-86
2022/09/17 06:01:31;;;;;;;7.03;4.43;;;13.30;99.90;;;;;;5051718;28;20024;-85
2022/09/17 06:03:57;;;;;;;7.55;4.85;;;13.40;99.90;;;;;;5055002;28;20029;-86
2022/09/17 06:06:23;;;;;;;14.45;6.13;;;13.40;99.90;;;;;;5058144;28;20028;-85
2022/09/17 06:08:49;;;;;;;11.10;5.22;;;13.40;99.90;;;;;;5072056;28;20029;-85
2022/09/17 06:11:14;;;;;;;5.07;3.92;;;13.40;99.90;;;;;;5073973;28;20025;-84
2022/09/17 06:13:42;;;;;;;6.75;4.18;;;13.40;99.90;;;;;;5077663;28;20020;-84
2022/09/17 06:16:08;;;;;;;6.43;3.80;;;13.40;99.90;;;;;;5077704;28;20029;-85
2022/09/17 06:18:33;;;;;;;10.82;5.70;;;13.50;99.90;;;;;;5077344;28;20037;-85
2022/09/17 06:21:01;;;;;;;7.25;4.18;;;13.50;99.90;;;;;;5077114;28;20084;-86
2022/09/17 06:23:33;;;;;;;7.47;3.88;;;13.50;99.90;;;;;;5069637;28;20017;-84
2022/09/17 06:26:01;;;;;;;5.97;3.58;;;13.60;99.90;;;;;;5064434;28;20029;-84
2022/09/17 06:28:28;;;;;;;6.22;3.92;;;13.70;99.90;;;;;;5067639;28;20041;-84
2022/09/17 06:30:55;;;;;;;5.75;3.30;;;13.80;99.90;;;;;;5081548;28;20037;-83
2022/09/17 06:33:22;;;;;;;5.13;3.50;;;13.80;99.90;;;;;;5075234;28;20016;-84
2022/09/17 06:35:48;;;;;;;6.88;3.33;;;13.80;99.90;;;;;;5070798;28;20052;-85
2022/09/17 06:38:14;;;;;;;8.05;3.75;;;13.80;99.90;;;;;;5070759;28;20448;-85
2022/09/17 06:40:40;;;;;;;5.05;3.15;;;13.80;99.90;;;;;;5072873;28;20033;-85
2022/09/17 06:43:06;;;;;;;5.65;3.50;;;13.90;99.90;;;;;;5052676;28;20378;-86
2022/09/17 06:45:32;;;;;;;7.05;3.45;;;13.90;99.90;;;;;;5065242;28;20232;-87
2022/09/17 06:48:01;;;;;;;6.05;3.15;;;14.00;99.90;;;;;;5095998;28;20040;-89
2022/09/17 06:50:27;;;;;;;4.00;2.95;;;14.00;99.90;;;;;;5098134;28;20016;-86
2022/09/17 06:52:53;;;;;;;4.43;3.22;;;14.00;99.90;;;;;;5096898;28;20020;-87
2022/09/17 06:55:20;;;;;;;4.00;2.92;;;14.10;99.90;;;;;;5092365;28;20074;-86
2022/09/17 06:57:46;;;;;;;7.15;2.92;;;14.10;99.90;;;;;;5085839;28;20048;-86
2022/09/17 07:00:13;;;;;;;4.38;2.90;;;14.10;99.90;;;;;;5087647;28;20020;-85
2022/09/17 07:02:38;;;;;;;4.53;2.80;;;14.20;99.90;;;;;;5070529;28;20085;-86
2022/09/17 07:05:05;;;;;;;6.68;2.80;;;14.20;99.90;;;;;;5084350;28;20096;-86
2022/09/17 07:07:31;;;;;;;5.25;2.85;;;14.30;99.90;;;;;;5075700;28;20048;-85
2022/09/17 07:09:57;;;;;;;3.45;2.67;;;14.40;99.90;;;;;;5068852;28;20028;-86
2022/09/17 07:12:22;;;;;;;3.13;2.38;;;14.40;99.90;;;;;;5069366;28;20075;-85
2022/09/17 07:14:48;;;;;;;3.13;2.13;;;14.50;99.90;;;;;;5072227;28;20012;-88
2022/09/17 07:17:14;;;;;;;3.20;2.38;;;14.60;99.90;;;;;;5073436;28;20032;-90
2022/09/17 07:19:40;;;;;;;2.30;2.10;;;14.60;99.90;;;;;;5082632;28;20086;-84
2022/09/17 07:22:07;;;;;;;7.03;2.65;;;14.50;99.90;;;;;;5083119;28;20024;-86
2022/09/17 07:24:33;;;;;;;5.45;2.28;;;14.40;99.90;;;;;;5068692;28;20035;-87
2022/09/17 07:27:00;;;;;;;4.38;2.17;;;14.40;99.90;;;;;;5074763;28;20020;-88
2022/09/17 07:29:26;;;;;;;7.93;2.38;;;14.50;99.90;;;;;;5066528;28;20029;-84
2022/09/17 07:31:53;;;;;;;4.68;2.25;;;14.40;99.90;;;;;;5069080;28;20037;-87
2022/09/17 07:34:19;;;;;;;3.95;2.10;;;14.40;99.90;;;;;;5069125;28;20108;-87
2022/09/17 07:36:45;;;;;;;5.05;2.35;;;14.40;99.90;;;;;;5070052;28;20404;-87
2022/09/17 07:39:12;;;;;;;7.55;2.88;;;14.50;99.90;;;;;;5072902;28;20020;-87
2022/09/17 07:41:39;;;;;;;3.72;2.72;;;14.60;99.90;;;;;;5038114;28;20107;-86
2022/09/17 07:44:08;;;;;;;4.60;2.33;;;14.60;99.90;;;;;;5076360;28;20044;-88
2022/09/17 07:46:34;;;;;;;4.20;2.20;;;14.60;99.90;;;;;;5080265;28;20074;-87
2022/09/17 07:49:00;;;;;;;3.05;2.47;;;14.60;99.90;;;;;;5039126;28;20039;-88
2022/09/17 07:51:27;;;;;;;4.97;2.55;;;14.70;99.90;;;;;;5071237;28;20084;-85
2022/09/17 07:53:55;;;;;;;5.28;2.13;;;14.80;99.90;;;;;;5071327;28;20048;-85
2022/09/17 07:56:21;;;;;;;2.78;2.28;;;14.80;99.90;;;;;;5053401;28;20021;-86
2022/09/17 07:58:47;;;;;;;4.13;2.33;;;14.70;99.90;;;;;;5065347;28;20037;-88
2022/09/17 08:01:15;;;;;;;10.35;2.58;;;14.70;99.90;;;;;;5056681;28;20009;-86
2022/09/17 08:03:47;;;;;;;3.67;2.63;;;14.50;99.90;;;;;;5063122;28;20032;-85
2022/09/17 08:06:16;;;;;;;9.27;2.90;;;14.50;99.90;;;;;;5080420;28;20067;-84
2022/09/17 08:08:42;;;;;;;4.95;2.78;;;14.50;99.90;;;;;;5079881;28;20039;-85
2022/09/17 08:11:11;;;;;;;5.82;2.65;;;14.60;99.90;;;;;;5078789;28;20009;-85
2022/09/17 08:13:37;;;;;;;2.97;2.28;;;14.70;99.90;;;;;;5075968;28;20025;-85
2022/09/17 08:16:10;;;;;;;4.60;2.40;;;14.70;99.90;;;;;;5067558;28;20060;-85
2022/09/17 08:18:36;;;;;;;3.35;2.47;;;14.80;99.90;;;;;;5050385;28;20033;-84
2022/09/17 08:21:04;;;;;;;3.53;2.55;;;14.80;99.90;;;;;;5071490;28;20025;-85
2022/09/17 08:23:33;;;;;;;8.85;2.80;;;14.90;99.90;;;;;;5067233;28;20028;-83
2022/09/17 08:25:59;;;;;;;6.38;2.60;;;14.90;99.90;;;;;;5041853;28;20021;-83
2022/09/17 08:28:27;;;;;;;4.82;2.85;;;14.80;99.90;;;;;;5066318;28;20511;-83
2022/09/17 08:30:59;;;;;;;3.85;2.60;;;14.70;99.90;;;;;;5067719;28;20068;-86
2022/09/17 08:33:25;;;;;;;6.18;2.25;;;14.60;99.90;;;;;;5067878;28;20029;-84
2022/09/17 08:35:58;;;;;;;4.75;2.53;;;14.50;99.90;;;;;;5068370;28;20025;-83
2022/09/17 08:38:28;;;;;;;7.47;2.70;;;14.50;99.90;;;;;;5071100;28;20033;-85
2022/09/17 08:40:57;;;;;;;3.53;2.33;;;14.40;99.90;;;;;;5079337;28;20108;-84
2022/09/17 08:43:24;;;;;;;3.78;2.30;;;14.40;99.90;;;;;;5053936;28;20044;-84
2022/09/17 08:45:55;;;;;;;5.93;2.42;;;14.50;99.90;;;;;;5066531;28;20056;-86
2022/09/17 08:48:24;;;;;;;10.30;2.22;;;14.60;99.90;;;;;;5049186;28;20753;-84
2022/09/17 08:50:50;;;;;;;8.50;1.83;;;14.80;99.90;;;;;;5067186;28;20032;-84
2022/09/17 08:53:33;;;;;;;2.35;1.77;;;14.70;99.90;;;;;;5067668;28;20032;-84
2022/09/17 08:56:10;;;;;;;3.03;1.73;;;14.80;99.90;;;;;;5066932;28;20032;-84
2022/09/17 08:59:00;;;;;;;6.07;1.75;;;14.80;99.90;;;;;;5049888;28;20041;-84
2022/09/17 09:01:33;;;;;;;3.33;1.67;;;14.80;99.90;;;;;;5067120;28;20170;-84
2022/09/17 09:04:18;;;;;;;6.18;2.22;;;14.80;99.90;;;;;;5048579;28;20033;-85
2022/09/17 09:06:59;;;;;;;2.60;1.88;;;14.90;99.90;;;;;;5066531;28;20036;-85
2022/09/17 09:09:30;;;;;;;3.47;1.50;;;15.10;99.90;;;;;;5066437;28;20033;-85
2022/09/17 09:12:09;;;;;;;3.05;1.95;;;15.20;99.90;;;;;;5067748;28;20028;-85
2022/09/17 09:14:50;;;;;;;2.45;1.33;;;15.30;99.90;;;;;;5050040;28;20040;-84
2022/09/17 09:17:20;;;;;;;5.18;1.40;;;15.20;99.90;;;;;;5067798;28;20452;-86
2022/09/17 09:19:46;;;;;;;4.30;1.77;;;15.00;99.90;;;;;;5048291;28;20032;-85
2022/09/17 09:22:32;;;;;;;2.60;1.30;;;15.00;99.90;;;;;;5066930;28;20041;-84
2022/09/17 09:25:25;;;;;;;3.85;1.58;;;15.10;99.90;;;;;;5067700;28;20029;-84
2022/09/17 09:28:16;;;;;;;2.47;1.30;;;15.00;99.90;;;;;;5066473;28;20037;-86
2022/09/17 09:30:55;;;;;;;5.60;1.48;;;15.00;99.90;;;;;;5066668;28;20052;-85
2022/09/17 09:33:32;;;;;;;4.78;1.60;;;14.90;99.90;;;;;;5066353;28;20079;-85
2022/09/17 09:35:58;;;;;;;1.95;1.10;;;14.60;99.90;;;;;;5069941;28;20021;-85
2022/09/17 09:38:56;;;;;;;2.60;1.50;;;14.50;99.90;;;;;;5072495;28;20026;-85
2022/09/17 09:41:36;;;;;;;2.45;1.48;;;14.40;99.90;;;;;;5049960;28;20036;-85
2022/09/17 09:44:11;;;;;;;5.65;1.85;;;14.40;99.90;;;;;;5054280;28;20044;-86
2022/09/17 09:47:04;;;;;;;4.68;1.58;;;14.40;99.90;;;;;;5032340;28;20025;-84
2022/09/17 09:49:52;;;;;;;3.88;1.30;;;14.40;99.90;;;;;;5066694;28;20385;-84
2022/09/17 09:52:41;;;;;;;5.68;1.40;;;14.20;99.90;;;;;;5065792;28;20033;-84
2022/09/17 09:55:22;;;;;;;2.25;1.30;;;14.10;99.90;;;;;;5019581;28;20420;-84
2022/09/17 09:57:53;;;;;;;4.05;1.50;;;14.20;99.90;;;;;;5067152;28;20035;-85
2022/09/17 10:00:34;;;;;;;3.95;1.60;;;14.40;99.90;;;;;;5068565;28;20024;-84
2022/09/17 10:03:03;;;;;;;3.15;1.73;;;14.50;99.90;;;;;;5077695;28;20055;-83
2022/09/17 10:05:29;;;;;;;4.72;1.50;;;14.50;99.90;;;;;;5060071;28;20037;-84
2022/09/17 10:07:56;;;;;;;3.55;1.40;;;14.60;99.90;;;;;;5077724;28;20037;-84
2022/09/17 10:10:21;;;;;;;3.90;1.42;;;14.70;99.90;;;;;;5077865;28;20025;-84
2022/09/17 10:12:47;;;;;;;5.90;1.58;;;14.70;99.90;;;;;;5076580;28;20044;-84
2022/09/17 10:15:25;;;;;;;3.80;1.52;;;14.70;99.90;;;;;;5067986;28;20514;-84
2022/09/17 10:18:14;;;;;;;7.30;1.50;;;14.60;99.90;;;;;;5074545;28;20017;-84
2022/09/17 10:20:49;;;;;;;3.17;1.42;;;14.40;99.90;;;;;;5072623;28;20040;-85
2022/09/17 10:23:15;;;;;;;2.72;1.63;;;14.50;99.90;;;;;;5067476;28;20044;-85
2022/09/17 10:25:44;;;;;;;5.32;1.63;;;14.40;99.90;;;;;;5069385;28;20032;-84
2022/09/17 10:28:34;;;;;;;2.60;1.50;;;14.50;99.90;;;;;;5052025;28;20052;-85
2022/09/17 10:31:05;;;;;;;4.35;1.42;;;14.60;99.90;;;;;;5052670;28;20037;-85
2022/09/17 10:33:32;;;;;;;5.68;1.30;;;14.60;99.90;;;;;;5073103;28;20224;-84
2022/09/17 10:36:08;;;;;;;4.38;1.70;;;14.50;99.90;;;;;;5074597;28;20017;-85
2022/09/17 10:38:37;;;;;;;4.25;1.63;;;14.70;99.90;;;;;;5074492;28;20634;-84
2022/09/17 10:41:24;;;;;;;5.07;1.58;;;14.80;99.90;;;;;;5075397;28;20024;-84
2022/09/17 10:43:50;;;;;;;4.80;1.75;;;14.80;99.90;;;;;;5056951;28;20056;-85
2022/09/17 10:46:18;;;;;;;4.20;1.60;;;14.80;99.90;;;;;;5074903;28;20093;-84
2022/09/17 10:49:06;;;;;;;7.10;1.85;;;14.90;99.90;;;;;;5074454;28;20056;-84
2022/09/17 10:51:32;;;;;;;8.52;1.80;;;15.00;99.90;;;;;;5073484;28;20025;-84
2022/09/17 10:54:39;;;;;;;6.30;1.50;;;15.00;99.90;;;;;;5070990;28;20116;-85
2022/09/17 10:57:06;;;;;;;2.53;1.73;;;15.00;99.90;;;;;;5072045;28;20029;-85
2022/09/17 11:00:04;;;;;;;5.15;1.40;;;15.00;99.90;;;;;;5075808;28;20319;-84
2022/09/17 11:02:59;;;;;;;2.28;1.45;;;14.90;99.90;;;;;;5074620;28;20032;-84
2022/09/17 11:05:54;;;;;;;4.88;1.73;;;15.00;99.90;;;;;;5075613;28;20029;-84
2022/09/17 11:08:25;;;;;;;2.42;1.23;;;15.10;99.90;;;;;;5055822;28;20036;-84
2022/09/17 11:11:24;;;;;;;4.55;1.55;;;15.30;99.90;;;;;;5073325;28;20036;-84
2022/09/17 11:14:18;;;;;;;5.30;1.50;;;15.60;99.90;;;;;;5017274;28;20259;-84
2022/09/17 11:16:44;;;;;;;7.80;2.30;;;16.10;99.90;;;;;;5052726;28;20064;-85
2022/09/17 11:19:54;;;;;;;2.63;1.23;;;16.40;99.90;;;;;;5071872;28;20071;-84
2022/09/17 11:22:26;;;;;;;2.75;1.40;;;16.70;99.90;;;;;;5047463;28;20044;-84
2022/09/17 11:25:08;;;;;;;7.18;1.80;;;16.80;99.90;;;;;;5041215;28;20053;-85
2022/09/17 11:27:56;;;;;;;4.47;1.58;;;16.60;99.90;;;;;;5069983;28;20072;-84
2022/09/17 11:30:23;;;;;;;5.47;1.35;;;16.50;99.90;;;;;;5064175;28;20072;-84
2022/09/17 11:33:22;;;;;;;3.38;1.50;;;16.50;99.90;;;;;;5063618;28;20061;-83
2022/09/17 11:36:03;;;;;;;3.53;1.52;;;16.70;99.90;;;;;;5071139;28;20025;-86
2022/09/17 11:38:29;;;;;;;6.32;1.40;;;16.60;99.90;;;;;;5072232;28;20029;-84
2022/09/17 11:41:13;;;;;;;3.53;1.88;;;16.40;99.90;;;;;;5070917;28;20025;-86
2022/09/17 11:43:47;;;;;;;5.20;1.33;;;16.10;99.90;;;;;;5088562;23;20037;-80
2022/09/17 11:46:33;;;;;;;5.18;1.77;;;16.00;99.90;;;;;;5058054;28;20061;-82
2022/09/17 11:49:10;;;;;;;6.55;1.60;;;15.80;99.90;;;;;;5055860;28;20036;-81
2022/09/17 11:51:46;;;;;;;4.97;1.60;;;15.60;99.90;;;;;;5055351;28;20036;-82
2022/09/17 11:54:30;;;;;;;4.22;1.70;;;15.50;99.90;;;;;;5061403;28;20036;-80
2022/09/17 11:57:11;;;;;;;9.55;1.60;;;15.50;99.90;;;;;;5066467;28;20037;-81
2022/09/17 12:00:00;;;;;;;6.72;1.55;;;15.50;99.90;;;;;;5055666;28;20159;-81
2022/09/17 12:02:32;;;;;;;4.78;1.75;;;15.50;99.90;;;;;;5038936;28;20033;-80
2022/09/17 12:05:04;;;;;;;9.93;1.85;;;15.40;99.90;;;;;;5056127;28;20074;-80
2022/09/17 12:08:00;;;;;;;6.72;1.52;;;15.20;99.90;;;;;;5054526;28;20033;-79
2022/09/17 12:10:46;;;;;;;5.00;2.03;;;15.00;99.90;;;;;;5038607;28;20128;-79
2022/09/17 12:13:26;;;;;;;5.03;1.77;;;14.80;99.90;;;;;;5054907;28;20485;-81
2022/09/17 12:16:06;;;;;;;2.40;1.67;;;14.80;99.90;;;;;;5037114;28;20029;-79
2022/09/17 12:19:09;;;;;;;5.97;1.73;;;14.60;99.90;;;;;;5054127;28;20026;-82
2022/09/17 12:21:52;;;;;;;2.83;1.80;;;14.50;99.90;;;;;;5058457;28;20032;-79
2022/09/17 12:24:24;;;;;;;4.50;1.75;;;14.40;99.90;;;;;;5061695;28;20033;-82
2022/09/17 12:27:18;;;;;;;7.25;2.15;;;14.50;99.90;;;;;;5058516;28;20029;-80
2022/09/17 12:29:59;;;;;;;4.68;1.90;;;14.50;99.90;;;;;;5058002;28;20362;-78
2022/09/17 12:32:28;;;;;;;2.72;1.85;;;14.50;99.90;;;;;;5061437;28;20220;-81
2022/09/17 12:35:13;;;;;;;5.22;1.88;;;14.60;99.90;;;;;;5041901;28;20033;-79
2022/09/17 12:38:23;;;;;;;5.30;1.92;;;14.60;99.90;;;;;;5044740;28;20032;-79
2022/09/17 12:41:15;;;;;;;5.32;1.50;;;14.50;99.90;;;;;;5075281;28;20463;-81
2022/09/17 12:43:41;;;;;;;10.00;2.00;;;14.40;99.90;;;;;;5061036;28;20090;-79
2022/09/17 12:46:49;;;;;;;6.15;1.90;;;14.30;99.90;;;;;;5061566;28;20025;-79
2022/09/17 12:49:15;;;;;;;6.15;2.10;;;14.40;99.90;;;;;;5067273;28;20029;-81
2022/09/17 12:51:57;;;;;;;4.18;2.05;;;14.40;99.90;;;;;;5064245;28;20021;-80
2022/09/17 12:54:50;;;;;;;5.05;1.60;;;14.30;99.90;;;;;;5068391;28;20040;-79
2022/09/17 12:57:28;;;;;;;3.83;1.80;;;14.30;99.90;;;;;;5058099;28;20079;-81
2022/09/17 13:00:05;;;;;;;4.35;2.13;;;14.20;99.90;;;;;;5056830;28;20044;-81
2022/09/17 13:02:45;;;;;;;9.98;2.15;;;14.10;99.90;;;;;;5058522;28;20028;-80
2022/09/17 13:05:35;;;;;;;5.72;1.65;;;14.00;99.90;;;;;;5058951;28;20025;-80
2022/09/17 13:08:29;;;;;;;4.85;1.73;;;13.90;99.90;;;;;;5066561;28;20025;-79
2022/09/17 13:11:30;;;;;;;5.25;1.83;;;13.90;99.90;;;;;;5061180;28;20040;-79
2022/09/17 13:14:01;;;;;;;8.75;2.00;;;13.90;99.90;;;;;;5059862;28;20404;-80
2022/09/17 13:16:47;;;;;;;6.03;2.03;;;13.80;99.90;;;;;;5059019;28;20039;-80
2022/09/17 13:19:51;;;;;;;9.35;2.00;;;13.80;99.90;;;;;;5058013;28;20033;-80